sensor_id;sensor_type;location;lat;lon;timestamp;pressure;altitude;pressure_sealevel;temperature;humidity
24160;BME280;62385;41.594;23.808;2022-11-13T00:00:50;96775.00;;;5.24;88.26
24160;BME280;62385;41.594;23.808;2022-11-13T00:03:34;96771.63;;;5.34;88.57
24160;BME280;62385;41.594;23.808;2022-11-13T00:06:19;96779.00;;;5.29;87.74
24160;BME280;62385;41.594;23.808;2022-11-13T00:09:03;96776.06;;;5.34;88.07
24160;BME280;62385;41.594;23.808;2022-11-13T00:11:47;96771.09;;;5.42;88.07
24160;BME280;62385;41.594;23.808;2022-11-13T00:14:31;96772.13;;;5.39;88.44
24160;BME280;62385;41.594;23.808;2022-11-13T00:17:16;96773.84;;;5.02;87.59
24160;BME280;62385;41.594;23.808;2022-11-13T00:20:00;96771.84;;;4.81;87.79
24160;BME280;62385;41.594;23.808;2022-11-13T00:22:44;96780.06;;;4.76;87.71
24160;BME280;62385;41.594;23.808;2022-11-13T00:25:29;96777.00;;;4.82;88.62
24160;BME280;62385;41.594;23.808;2022-11-13T00:28:13;96775.22;;;4.83;88.26
24160;BME280;62385;41.594;23.808;2022-11-13T00:31:03;96777.53;;;4.75;88.47
24160;BME280;62385;41.594;23.808;2022-11-13T00:33:47;96775.31;;;4.69;88.17
24160;BME280;62385;41.594;23.808;2022-11-13T00:36:32;96777.31;;;4.78;87.92
24160;BME280;62385;41.594;23.808;2022-11-13T00:39:15;96782.59;;;4.90;87.98
24160;BME280;62385;41.594;23.808;2022-11-13T00:41:59;96783.31;;;4.67;88.09
24160;BME280;62385;41.594;23.808;2022-11-13T00:44:43;96779.41;;;4.73;88.56
24160;BME280;62385;41.594;23.808;2022-11-13T00:47:27;96773.84;;;4.90;88.17
24160;BME280;62385;41.594;23.808;2022-11-13T00:50:11;96789.53;;;4.91;87.82
24160;BME280;62385;41.594;23.808;2022-11-13T00:52:55;96785.97;;;4.80;88.35
24160;BME280;62385;41.594;23.808;2022-11-13T00:55:41;96771.22;;;4.90;88.37
24160;BME280;62385;41.594;23.808;2022-11-13T00:58:25;96781.56;;;4.80;88.30
24160;BME280;62385;41.594;23.808;2022-11-13T01:01:13;96785.13;;;4.79;87.82
24160;BME280;62385;41.594;23.808;2022-11-13T01:03:58;96791.81;;;4.58;88.58
24160;BME280;62385;41.594;23.808;2022-11-13T01:06:43;96783.09;;;4.57;87.96
24160;BME280;62385;41.594;23.808;2022-11-13T01:09:28;96779.66;;;4.30;87.98
24160;BME280;62385;41.594;23.808;2022-11-13T01:12:12;96776.88;;;4.19;88.16
24160;BME280;62385;41.594;23.808;2022-11-13T01:14:56;96779.44;;;4.33;88.17
24160;BME280;62385;41.594;23.808;2022-11-13T01:17:41;96774.53;;;4.41;87.69
24160;BME280;62385;41.594;23.808;2022-11-13T01:20:25;96782.00;;;4.47;87.37
24160;BME280;62385;41.594;23.808;2022-11-13T01:23:10;96781.38;;;4.56;87.23
24160;BME280;62385;41.594;23.808;2022-11-13T01:25:54;96776.09;;;4.44;87.34
24160;BME280;62385;41.594;23.808;2022-11-13T01:28:40;96783.16;;;4.56;88.53
24160;BME280;62385;41.594;23.808;2022-11-13T01:31:27;96778.28;;;4.89;87.89
24160;BME280;62385;41.594;23.808;2022-11-13T01:34:12;96775.31;;;4.69;88.29
24160;BME280;62385;41.594;23.808;2022-11-13T01:36:56;96786.09;;;4.51;87.73
24160;BME280;62385;41.594;23.808;2022-11-13T01:39:40;96780.25;;;4.21;88.08
24160;BME280;62385;41.594;23.808;2022-11-13T01:42:25;96782.69;;;4.24;87.93
24160;BME280;62385;41.594;23.808;2022-11-13T01:45:59;96779.28;;;4.09;87.93
24160;BME280;62385;41.594;23.808;2022-11-13T01:48:49;96778.44;;;4.09;88.82
24160;BME280;62385;41.594;23.808;2022-11-13T01:51:50;96775.41;;;4.15;89.05
24160;BME280;62385;41.594;23.808;2022-11-13T01:54:57;96769.72;;;4.08;88.50
24160;BME280;62385;41.594;23.808;2022-11-13T01:57:44;96773.00;;;3.98;87.88
24160;BME280;62385;41.594;23.808;2022-11-13T02:00:29;96774.13;;;4.08;87.79
24160;BME280;62385;41.594;23.808;2022-11-13T02:03:13;96775.16;;;4.05;88.26
24160;BME280;62385;41.594;23.808;2022-11-13T02:05:57;96768.22;;;4.04;88.17
24160;BME280;62385;41.594;23.808;2022-11-13T02:08:42;96769.44;;;3.99;88.29
24160;BME280;62385;41.594;23.808;2022-11-13T02:11:26;96780.34;;;4.19;88.55
24160;BME280;62385;41.594;23.808;2022-11-13T02:14:11;96772.06;;;4.26;87.93
24160;BME280;62385;41.594;23.808;2022-11-13T02:17:03;96772.03;;;4.13;88.03
24160;BME280;62385;41.594;23.808;2022-11-13T02:19:52;96771.44;;;3.95;88.07
24160;BME280;62385;41.594;23.808;2022-11-13T02:23:08;96777.78;;;3.79;88.35
24160;BME280;62385;41.594;23.808;2022-11-13T02:25:54;96774.78;;;3.70;88.33
24160;BME280;62385;41.594;23.808;2022-11-13T02:28:38;96773.66;;;3.75;87.64
24160;BME280;62385;41.594;23.808;2022-11-13T02:31:23;96779.59;;;3.64;87.57
24160;BME280;62385;41.594;23.808;2022-11-13T02:34:08;96768.25;;;3.63;88.44
24160;BME280;62385;41.594;23.808;2022-11-13T02:36:53;96766.81;;;3.72;88.71
24160;BME280;62385;41.594;23.808;2022-11-13T02:39:37;96771.47;;;3.81;87.84
24160;BME280;62385;41.594;23.808;2022-11-13T02:42:21;96769.91;;;3.64;88.90
24160;BME280;62385;41.594;23.808;2022-11-13T02:45:06;96766.34;;;3.80;89.12
24160;BME280;62385;41.594;23.808;2022-11-13T02:47:51;96765.22;;;3.69;88.45
24160;BME280;62385;41.594;23.808;2022-11-13T02:50:37;96765.97;;;3.71;88.72
24160;BME280;62385;41.594;23.808;2022-11-13T02:53:22;96764.28;;;3.70;88.60
24160;BME280;62385;41.594;23.808;2022-11-13T02:56:06;96767.13;;;3.67;88.63
24160;BME280;62385;41.594;23.808;2022-11-13T02:58:50;96767.69;;;3.58;88.26
24160;BME280;62385;41.594;23.808;2022-11-13T03:01:34;96774.81;;;3.56;88.28
24160;BME280;62385;41.594;23.808;2022-11-13T03:04:17;96770.91;;;3.49;88.88
24160;BME280;62385;41.594;23.808;2022-11-13T03:07:01;96777.75;;;3.52;87.91
24160;BME280;62385;41.594;23.808;2022-11-13T03:09:45;96777.25;;;3.59;88.39
24160;BME280;62385;41.594;23.808;2022-11-13T03:12:29;96785.13;;;3.59;88.32
24160;BME280;62385;41.594;23.808;2022-11-13T03:15:14;96782.06;;;3.39;87.85
24160;BME280;62385;41.594;23.808;2022-11-13T03:18:06;96791.81;;;3.37;88.12
24160;BME280;62385;41.594;23.808;2022-11-13T03:20:50;96790.41;;;3.45;88.60
24160;BME280;62385;41.594;23.808;2022-11-13T03:23:38;96798.19;;;3.47;87.47
24160;BME280;62385;41.594;23.808;2022-11-13T03:26:23;96799.88;;;3.34;88.31
24160;BME280;62385;41.594;23.808;2022-11-13T03:29:08;96801.09;;;3.42;88.79
24160;BME280;62385;41.594;23.808;2022-11-13T03:31:52;96804.47;;;3.30;88.28
24160;BME280;62385;41.594;23.808;2022-11-13T03:34:36;96799.31;;;3.29;87.92
24160;BME280;62385;41.594;23.808;2022-11-13T03:37:23;96808.97;;;3.42;88.43
24160;BME280;62385;41.594;23.808;2022-11-13T03:40:07;96805.03;;;3.49;88.10
24160;BME280;62385;41.594;23.808;2022-11-13T03:42:52;96800.41;;;3.53;87.38
24160;BME280;62385;41.594;23.808;2022-11-13T03:45:36;96799.56;;;3.52;87.68
24160;BME280;62385;41.594;23.808;2022-11-13T03:48:21;96812.25;;;3.17;87.14
24160;BME280;62385;41.594;23.808;2022-11-13T03:51:06;96819.19;;;3.33;88.07
24160;BME280;62385;41.594;23.808;2022-11-13T03:53:52;96822.63;;;3.19;88.32
24160;BME280;62385;41.594;23.808;2022-11-13T03:56:38;96817.97;;;3.38;87.79
24160;BME280;62385;41.594;23.808;2022-11-13T03:59:22;96822.75;;;3.17;87.47
24160;BME280;62385;41.594;23.808;2022-11-13T04:02:06;96822.06;;;3.00;88.28
24160;BME280;62385;41.594;23.808;2022-11-13T04:04:50;96817.38;;;2.91;88.50
24160;BME280;62385;41.594;23.808;2022-11-13T04:07:35;96814.97;;;3.16;87.70
24160;BME280;62385;41.594;23.808;2022-11-13T04:10:20;96810.84;;;2.98;87.25
24160;BME280;62385;41.594;23.808;2022-11-13T04:13:04;96818.41;;;2.88;88.24
24160;BME280;62385;41.594;23.808;2022-11-13T04:15:48;96811.03;;;3.09;87.95
24160;BME280;62385;41.594;23.808;2022-11-13T04:18:32;96813.63;;;2.95;88.19
24160;BME280;62385;41.594;23.808;2022-11-13T04:21:16;96811.34;;;2.74;87.80
24160;BME280;62385;41.594;23.808;2022-11-13T04:24:00;96817.50;;;2.59;88.21
24160;BME280;62385;41.594;23.808;2022-11-13T04:26:44;96809.88;;;2.85;88.29
24160;BME280;62385;41.594;23.808;2022-11-13T04:29:30;96807.84;;;2.90;87.57
24160;BME280;62385;41.594;23.808;2022-11-13T04:32:15;96809.84;;;3.14;88.70
24160;BME280;62385;41.594;23.808;2022-11-13T04:34:59;96811.00;;;2.95;88.49
24160;BME280;62385;41.594;23.808;2022-11-13T04:37:44;96814.38;;;2.83;88.78
24160;BME280;62385;41.594;23.808;2022-11-13T04:40:28;96824.84;;;2.83;87.83
24160;BME280;62385;41.594;23.808;2022-11-13T04:43:12;96826.81;;;2.65;88.21
24160;BME280;62385;41.594;23.808;2022-11-13T04:45:55;96820.84;;;2.91;87.93
24160;BME280;62385;41.594;23.808;2022-11-13T04:48:40;96822.78;;;2.73;88.14
24160;BME280;62385;41.594;23.808;2022-11-13T04:51:24;96822.97;;;2.70;88.46
24160;BME280;62385;41.594;23.808;2022-11-13T04:54:08;96820.56;;;2.96;88.41
24160;BME280;62385;41.594;23.808;2022-11-13T04:56:52;96831.44;;;2.90;87.95
24160;BME280;62385;41.594;23.808;2022-11-13T04:59:37;96828.34;;;3.11;88.20
24160;BME280;62385;41.594;23.808;2022-11-13T05:02:22;96826.19;;;3.04;88.44
24160;BME280;62385;41.594;23.808;2022-11-13T05:05:07;96824.53;;;3.17;87.13
24160;BME280;62385;41.594;23.808;2022-11-13T05:07:52;96835.38;;;3.11;88.21
24160;BME280;62385;41.594;23.808;2022-11-13T05:10:36;96826.94;;;2.92;88.53
24160;BME280;62385;41.594;23.808;2022-11-13T05:13:21;96831.75;;;3.13;87.40
24160;BME280;62385;41.594;23.808;2022-11-13T05:16:08;96835.69;;;3.06;87.80
24160;BME280;62385;41.594;23.808;2022-11-13T05:18:53;96843.16;;;3.12;87.10
24160;BME280;62385;41.594;23.808;2022-11-13T05:21:38;96843.13;;;2.98;87.21
24160;BME280;62385;41.594;23.808;2022-11-13T05:24:22;96852.13;;;2.94;87.12
24160;BME280;62385;41.594;23.808;2022-11-13T05:27:06;96852.94;;;3.10;87.92
24160;BME280;62385;41.594;23.808;2022-11-13T05:29:50;96848.25;;;3.30;87.35
24160;BME280;62385;41.594;23.808;2022-11-13T05:32:34;96843.59;;;2.91;88.18
24160;BME280;62385;41.594;23.808;2022-11-13T05:35:18;96846.81;;;2.96;89.31
24160;BME280;62385;41.594;23.808;2022-11-13T05:38:02;96857.03;;;2.70;89.28
24160;BME280;62385;41.594;23.808;2022-11-13T05:40:47;96854.47;;;2.85;89.52
24160;BME280;62385;41.594;23.808;2022-11-13T05:43:31;96869.16;;;2.87;87.67
24160;BME280;62385;41.594;23.808;2022-11-13T05:46:16;96864.16;;;3.12;87.71
24160;BME280;62385;41.594;23.808;2022-11-13T05:49:01;96860.88;;;3.23;86.67
24160;BME280;62385;41.594;23.808;2022-11-13T05:51:45;96867.19;;;3.35;87.27
24160;BME280;62385;41.594;23.808;2022-11-13T05:54:29;96859.69;;;3.29;86.88
24160;BME280;62385;41.594;23.808;2022-11-13T05:57:13;96864.72;;;3.32;87.42
24160;BME280;62385;41.594;23.808;2022-11-13T05:59:57;96880.75;;;3.13;87.63
24160;BME280;62385;41.594;23.808;2022-11-13T06:02:41;96882.06;;;3.20;87.29
24160;BME280;62385;41.594;23.808;2022-11-13T06:05:25;96881.16;;;3.49;87.57
24160;BME280;62385;41.594;23.808;2022-11-13T06:08:09;96864.19;;;3.55;87.25
24160;BME280;62385;41.594;23.808;2022-11-13T06:10:58;96866.34;;;3.77;87.73
24160;BME280;62385;41.594;23.808;2022-11-13T06:13:44;96871.97;;;3.85;87.22
24160;BME280;62385;41.594;23.808;2022-11-13T06:16:35;96868.28;;;3.87;86.88
24160;BME280;62385;41.594;23.808;2022-11-13T06:19:20;96881.25;;;3.62;85.80
24160;BME280;62385;41.594;23.808;2022-11-13T06:22:03;96884.06;;;3.45;86.86
24160;BME280;62385;41.594;23.808;2022-11-13T06:24:47;96883.41;;;3.55;86.42
24160;BME280;62385;41.594;23.808;2022-11-13T06:27:31;96879.81;;;3.56;86.48
24160;BME280;62385;41.594;23.808;2022-11-13T06:30:15;96892.97;;;3.56;86.68
24160;BME280;62385;41.594;23.808;2022-11-13T06:33:00;96892.59;;;3.62;86.52
24160;BME280;62385;41.594;23.808;2022-11-13T06:35:44;96886.66;;;3.73;86.88
24160;BME280;62385;41.594;23.808;2022-11-13T06:38:33;96880.84;;;3.96;86.55
24160;BME280;62385;41.594;23.808;2022-11-13T06:41:20;96877.88;;;4.15;86.82
24160;BME280;62385;41.594;23.808;2022-11-13T06:44:04;96869.97;;;4.29;86.99
24160;BME280;62385;41.594;23.808;2022-11-13T06:46:48;96872.53;;;4.43;87.17
24160;BME280;62385;41.594;23.808;2022-11-13T06:49:34;96869.88;;;4.57;86.75
24160;BME280;62385;41.594;23.808;2022-11-13T06:52:18;96874.56;;;4.79;87.05
24160;BME280;62385;41.594;23.808;2022-11-13T06:55:03;96871.34;;;5.01;86.79
24160;BME280;62385;41.594;23.808;2022-11-13T06:57:48;96872.94;;;5.16;86.47
24160;BME280;62385;41.594;23.808;2022-11-13T07:00:32;96875.13;;;5.09;86.51
24160;BME280;62385;41.594;23.808;2022-11-13T07:03:21;96864.94;;;5.05;87.16
24160;BME280;62385;41.594;23.808;2022-11-13T07:06:08;96868.81;;;4.99;86.99
24160;BME280;62385;41.594;23.808;2022-11-13T07:08:52;96883.13;;;4.95;87.19
24160;BME280;62385;41.594;23.808;2022-11-13T07:11:36;96889.56;;;5.04;87.33
24160;BME280;62385;41.594;23.808;2022-11-13T07:14:21;96878.16;;;4.91;87.41
24160;BME280;62385;41.594;23.808;2022-11-13T07:17:06;96886.09;;;5.03;87.20
24160;BME280;62385;41.594;23.808;2022-11-13T07:19:50;96886.81;;;5.05;86.59
24160;BME280;62385;41.594;23.808;2022-11-13T07:22:34;96887.34;;;5.10;88.35
24160;BME280;62385;41.594;23.808;2022-11-13T07:25:18;96879.91;;;5.17;88.23
24160;BME280;62385;41.594;23.808;2022-11-13T07:28:02;96877.13;;;5.19;87.71
24160;BME280;62385;41.594;23.808;2022-11-13T07:30:46;96873.16;;;5.26;88.26
24160;BME280;62385;41.594;23.808;2022-11-13T07:33:30;96865.78;;;5.43;87.30
24160;BME280;62385;41.594;23.808;2022-11-13T07:36:15;96870.09;;;5.57;87.05
24160;BME280;62385;41.594;23.808;2022-11-13T07:39:00;96867.88;;;5.64;88.49
24160;BME280;62385;41.594;23.808;2022-11-13T07:41:46;96862.72;;;5.62;88.76
24160;BME280;62385;41.594;23.808;2022-11-13T07:44:31;96863.03;;;5.70;88.61
24160;BME280;62385;41.594;23.808;2022-11-13T07:47:15;96862.09;;;5.71;87.91
24160;BME280;62385;41.594;23.808;2022-11-13T07:49:59;96865.34;;;5.75;89.10
24160;BME280;62385;41.594;23.808;2022-11-13T07:52:43;96866.09;;;5.89;88.93
24160;BME280;62385;41.594;23.808;2022-11-13T07:55:28;96868.06;;;5.98;87.62
24160;BME280;62385;41.594;23.808;2022-11-13T07:58:14;96861.44;;;5.93;88.01
24160;BME280;62385;41.594;23.808;2022-11-13T08:01:03;96858.38;;;5.99;88.09
24160;BME280;62385;41.594;23.808;2022-11-13T08:03:48;96848.22;;;6.06;87.89
24160;BME280;62385;41.594;23.808;2022-11-13T08:06:32;96865.31;;;6.13;88.75
24160;BME280;62385;41.594;23.808;2022-11-13T08:09:19;96862.13;;;6.20;87.81
24160;BME280;62385;41.594;23.808;2022-11-13T08:12:04;96855.66;;;6.24;88.13
24160;BME280;62385;41.594;23.808;2022-11-13T08:14:49;96855.94;;;6.32;87.45
24160;BME280;62385;41.594;23.808;2022-11-13T08:17:33;96850.00;;;6.41;86.90
24160;BME280;62385;41.594;23.808;2022-11-13T08:20:18;96842.72;;;6.45;87.19
24160;BME280;62385;41.594;23.808;2022-11-13T08:23:03;96838.31;;;6.57;86.92
24160;BME280;62385;41.594;23.808;2022-11-13T08:25:49;96850.50;;;6.70;86.45
24160;BME280;62385;41.594;23.808;2022-11-13T08:28:33;96844.88;;;6.75;86.10
24160;BME280;62385;41.594;23.808;2022-11-13T08:31:19;96843.53;;;6.69;86.74
24160;BME280;62385;41.594;23.808;2022-11-13T08:34:03;96840.59;;;6.85;85.65
24160;BME280;62385;41.594;23.808;2022-11-13T08:36:47;96840.66;;;7.07;86.02
24160;BME280;62385;41.594;23.808;2022-11-13T08:39:32;96835.16;;;7.10;83.66
24160;BME280;62385;41.594;23.808;2022-11-13T08:42:18;96835.66;;;7.15;82.21
24160;BME280;62385;41.594;23.808;2022-11-13T08:45:03;96839.50;;;7.33;81.82
24160;BME280;62385;41.594;23.808;2022-11-13T08:47:48;96826.09;;;7.48;77.58
24160;BME280;62385;41.594;23.808;2022-11-13T08:50:33;96820.31;;;7.76;77.06
24160;BME280;62385;41.594;23.808;2022-11-13T08:53:18;96819.13;;;7.69;77.51
24160;BME280;62385;41.594;23.808;2022-11-13T08:56:03;96816.47;;;7.69;78.31
24160;BME280;62385;41.594;23.808;2022-11-13T08:58:48;96816.22;;;7.83;76.98
24160;BME280;62385;41.594;23.808;2022-11-13T09:01:32;96819.59;;;7.85;76.32
24160;BME280;62385;41.594;23.808;2022-11-13T09:04:16;96828.94;;;8.00;74.52
24160;BME280;62385;41.594;23.808;2022-11-13T09:07:00;96815.94;;;8.08;nan
24160;BME280;62385;41.594;23.808;2022-11-13T09:09:44;96811.13;;;8.13;76.82
24160;BME280;62385;41.594;23.808;2022-11-13T09:12:29;96812.94;;;8.13;75.20
24160;BME280;62385;41.594;23.808;2022-11-13T09:15:13;96806.72;;;8.57;73.24
24160;BME280;62385;41.594;23.808;2022-11-13T09:17:58;96797.44;;;8.83;74.11
24160;BME280;62385;41.594;23.808;2022-11-13T09:20:44;96796.97;;;8.78;74.42
24160;BME280;62385;41.594;23.808;2022-11-13T09:23:28;96795.53;;;8.85;73.14
24160;BME280;62385;41.594;23.808;2022-11-13T09:26:12;96793.28;;;9.01;73.80
24160;BME280;62385;41.594;23.808;2022-11-13T09:29:00;96783.56;;;9.11;73.23
24160;BME280;62385;41.594;23.808;2022-11-13T09:31:44;96781.63;;;9.13;70.79
24160;BME280;62385;41.594;23.808;2022-11-13T09:34:29;96780.50;;;9.37;69.12
24160;BME280;62385;41.594;23.808;2022-11-13T09:37:14;96776.72;;;9.30;69.43
24160;BME280;62385;41.594;23.808;2022-11-13T09:40:02;96759.84;;;9.31;70.84
24160;BME280;62385;41.594;23.808;2022-11-13T09:42:47;96761.06;;;9.26;71.63
24160;BME280;62385;41.594;23.808;2022-11-13T09:45:34;96752.53;;;9.53;70.11
24160;BME280;62385;41.594;23.808;2022-11-13T09:48:40;96756.59;;;9.48;70.86
24160;BME280;62385;41.594;23.808;2022-11-13T09:51:31;96751.06;;;9.70;67.44
24160;BME280;62385;41.594;23.808;2022-11-13T09:54:16;96745.00;;;9.98;66.79
24160;BME280;62385;41.594;23.808;2022-11-13T09:57:40;96746.78;;;10.18;67.60
24160;BME280;62385;41.594;23.808;2022-11-13T10:00:28;96741.25;;;10.10;69.52
24160;BME280;62385;41.594;23.808;2022-11-13T10:03:39;96729.41;;;10.05;69.40
24160;BME280;62385;41.594;23.808;2022-11-13T10:06:48;96727.00;;;10.11;71.09
24160;BME280;62385;41.594;23.808;2022-11-13T10:12:36;96728.75;;;10.22;69.08
24160;BME280;62385;41.594;23.808;2022-11-13T10:15:21;96723.56;;;10.21;68.73
24160;BME280;62385;41.594;23.808;2022-11-13T10:21:09;96719.38;;;10.28;67.81
24160;BME280;62385;41.594;23.808;2022-11-13T10:24:03;96721.22;;;10.37;65.05
24160;BME280;62385;41.594;23.808;2022-11-13T10:26:47;96705.56;;;10.53;62.78
24160;BME280;62385;41.594;23.808;2022-11-13T10:29:32;96702.59;;;10.75;62.61
24160;BME280;62385;41.594;23.808;2022-11-13T10:40:40;96689.75;;;10.71;64.09
24160;BME280;62385;41.594;23.808;2022-11-13T10:43:25;96677.31;;;10.81;62.38
24160;BME280;62385;41.594;23.808;2022-11-13T10:46:23;96681.84;;;11.07;63.32
24160;BME280;62385;41.594;23.808;2022-11-13T10:49:19;96664.84;;;11.28;62.64
24160;BME280;62385;41.594;23.808;2022-11-13T10:52:16;96669.41;;;11.35;62.66
24160;BME280;62385;41.594;23.808;2022-11-13T10:58:18;96659.22;;;11.31;63.79
24160;BME280;62385;41.594;23.808;2022-11-13T11:01:18;96657.06;;;11.44;62.98
24160;BME280;62385;41.594;23.808;2022-11-13T11:04:06;96663.13;;;11.36;62.32
24160;BME280;62385;41.594;23.808;2022-11-13T11:06:54;96660.91;;;11.32;63.65
24160;BME280;62385;41.594;23.808;2022-11-13T11:09:39;96656.41;;;11.59;62.98
24160;BME280;62385;41.594;23.808;2022-11-13T11:12:26;96652.72;;;11.80;61.55
24160;BME280;62385;41.594;23.808;2022-11-13T11:18:32;96636.38;;;11.92;61.54
24160;BME280;62385;41.594;23.808;2022-11-13T11:21:25;96630.91;;;12.12;61.38
24160;BME280;62385;41.594;23.808;2022-11-13T11:24:27;96629.53;;;11.90;63.16
24160;BME280;62385;41.594;23.808;2022-11-13T12:52:26;96542.25;;;13.22;57.76
24160;BME280;62385;41.594;23.808;2022-11-13T13:31:04;96535.97;;;13.39;56.93
24160;BME280;62385;41.594;23.808;2022-11-13T13:49:15;96526.50;;;13.53;56.01
24160;BME280;62385;41.594;23.808;2022-11-13T13:54:57;96528.16;;;13.54;55.70
24160;BME280;62385;41.594;23.808;2022-11-13T13:57:54;96526.50;;;13.45;57.54
24160;BME280;62385;41.594;23.808;2022-11-13T14:51:56;96512.72;;;11.34;66.03
24160;BME280;62385;41.594;23.808;2022-11-13T14:54:44;96506.13;;;11.38;65.31
24160;BME280;62385;41.594;23.808;2022-11-13T14:57:29;96502.31;;;11.58;64.47
24160;BME280;62385;41.594;23.808;2022-11-13T15:00:24;96510.22;;;10.78;69.39
24160;BME280;62385;41.594;23.808;2022-11-13T15:03:08;96509.56;;;10.39;71.00
24160;BME280;62385;41.594;23.808;2022-11-13T15:05:53;96513.81;;;10.22;71.17
24160;BME280;62385;41.594;23.808;2022-11-13T15:08:37;96515.47;;;10.13;72.01
24160;BME280;62385;41.594;23.808;2022-11-13T15:11:23;96515.75;;;10.20;70.90
24160;BME280;62385;41.594;23.808;2022-11-13T15:14:12;96513.78;;;10.03;71.49
24160;BME280;62385;41.594;23.808;2022-11-13T15:16:57;96515.59;;;10.12;71.19
24160;BME280;62385;41.594;23.808;2022-11-13T15:19:45;96515.34;;;10.05;70.24
24160;BME280;62385;41.594;23.808;2022-11-13T15:22:31;96523.72;;;10.20;69.84
24160;BME280;62385;41.594;23.808;2022-11-13T15:25:16;96526.09;;;9.65;72.92
24160;BME280;62385;41.594;23.808;2022-11-13T15:28:01;96531.97;;;9.50;73.11
24160;BME280;62385;41.594;23.808;2022-11-13T15:30:46;96526.38;;;9.43;73.39
24160;BME280;62385;41.594;23.808;2022-11-13T15:33:30;96531.94;;;9.21;73.36
24160;BME280;62385;41.594;23.808;2022-11-13T15:36:15;96533.59;;;9.22;73.64
24160;BME280;62385;41.594;23.808;2022-11-13T15:38:59;96534.16;;;9.16;73.99
24160;BME280;62385;41.594;23.808;2022-11-13T15:41:44;96533.91;;;9.19;72.96
24160;BME280;62385;41.594;23.808;2022-11-13T15:44:31;96543.63;;;9.09;74.08
24160;BME280;62385;41.594;23.808;2022-11-13T15:47:25;96543.34;;;9.12;73.54
24160;BME280;62385;41.594;23.808;2022-11-13T15:50:11;96536.88;;;8.86;74.06
24160;BME280;62385;41.594;23.808;2022-11-13T15:52:55;96539.59;;;8.65;75.07
24160;BME280;62385;41.594;23.808;2022-11-13T15:55:40;96542.56;;;8.51;75.00
24160;BME280;62385;41.594;23.808;2022-11-13T15:58:24;96543.41;;;8.51;75.08
24160;BME280;62385;41.594;23.808;2022-11-13T16:01:13;96542.69;;;8.49;74.84
24160;BME280;62385;41.594;23.808;2022-11-13T16:03:57;96545.31;;;8.40;75.39
24160;BME280;62385;41.594;23.808;2022-11-13T16:06:45;96541.28;;;8.24;76.03
24160;BME280;62385;41.594;23.808;2022-11-13T16:09:29;96551.13;;;8.33;76.26
24160;BME280;62385;41.594;23.808;2022-11-13T16:12:13;96558.44;;;8.51;75.05
24160;BME280;62385;41.594;23.808;2022-11-13T16:14:57;96551.88;;;8.45;75.14
24160;BME280;62385;41.594;23.808;2022-11-13T16:17:46;96556.34;;;8.24;75.95
24160;BME280;62385;41.594;23.808;2022-11-13T16:20:31;96559.31;;;8.10;76.82
24160;BME280;62385;41.594;23.808;2022-11-13T16:23:16;96561.28;;;8.17;76.81
24160;BME280;62385;41.594;23.808;2022-11-13T16:26:00;96562.16;;;8.39;74.92
24160;BME280;62385;41.594;23.808;2022-11-13T16:28:50;96562.19;;;8.27;74.92
24160;BME280;62385;41.594;23.808;2022-11-13T16:31:38;96566.84;;;8.14;75.95
24160;BME280;62385;41.594;23.808;2022-11-13T16:34:23;96566.78;;;8.05;76.23
24160;BME280;62385;41.594;23.808;2022-11-13T16:37:21;96564.31;;;8.13;76.24
24160;BME280;62385;41.594;23.808;2022-11-13T16:40:24;96572.41;;;8.11;76.32
24160;BME280;62385;41.594;23.808;2022-11-13T16:43:09;96559.34;;;7.78;77.41
24160;BME280;62385;41.594;23.808;2022-11-13T16:45:54;96569.84;;;7.68;77.32
24160;BME280;62385;41.594;23.808;2022-11-13T16:48:39;96582.25;;;7.57;77.74
24160;BME280;62385;41.594;23.808;2022-11-13T16:51:25;96593.31;;;7.51;78.16
24160;BME280;62385;41.594;23.808;2022-11-13T16:54:10;96598.28;;;7.33;78.75
24160;BME280;62385;41.594;23.808;2022-11-13T16:56:54;96595.56;;;7.23;79.25
24160;BME280;62385;41.594;23.808;2022-11-13T16:59:38;96602.88;;;7.31;78.93
24160;BME280;62385;41.594;23.808;2022-11-13T17:02:23;96598.06;;;7.36;78.81
24160;BME280;62385;41.594;23.808;2022-11-13T17:05:12;96598.78;;;7.27;78.33
24160;BME280;62385;41.594;23.808;2022-11-13T17:07:57;96602.41;;;7.15;79.70
24160;BME280;62385;41.594;23.808;2022-11-13T17:10:43;96606.91;;;7.46;78.54
24160;BME280;62385;41.594;23.808;2022-11-13T17:13:28;96604.44;;;7.22;78.36
24160;BME280;62385;41.594;23.808;2022-11-13T17:16:13;96600.88;;;7.01;79.08
24160;BME280;62385;41.594;23.808;2022-11-13T17:18:58;96604.25;;;7.03;79.91
24160;BME280;62385;41.594;23.808;2022-11-13T17:21:43;96602.91;;;6.97;79.84
24160;BME280;62385;41.594;23.808;2022-11-13T17:24:27;96609.28;;;6.84;80.52
24160;BME280;62385;41.594;23.808;2022-11-13T17:27:11;96604.00;;;6.73;80.01
24160;BME280;62385;41.594;23.808;2022-11-13T17:29:55;96612.16;;;6.70;79.79
24160;BME280;62385;41.594;23.808;2022-11-13T17:32:39;96617.91;;;6.64;80.51
24160;BME280;62385;41.594;23.808;2022-11-13T17:35:24;96617.31;;;6.60;80.34
24160;BME280;62385;41.594;23.808;2022-11-13T17:38:12;96621.88;;;6.58;80.43
24160;BME280;62385;41.594;23.808;2022-11-13T17:41:03;96612.16;;;6.47;81.08
24160;BME280;62385;41.594;23.808;2022-11-13T17:43:48;96623.44;;;6.61;80.46
24160;BME280;62385;41.594;23.808;2022-11-13T17:46:33;96615.13;;;6.43;80.92
24160;BME280;62385;41.594;23.808;2022-11-13T17:49:17;96614.28;;;6.42;80.66
24160;BME280;62385;41.594;23.808;2022-11-13T17:52:01;96621.00;;;6.24;80.54
24160;BME280;62385;41.594;23.808;2022-11-13T17:54:45;96615.03;;;6.44;80.21
24160;BME280;62385;41.594;23.808;2022-11-13T17:57:30;96618.84;;;6.63;79.84
24160;BME280;62385;41.594;23.808;2022-11-13T18:00:16;96617.19;;;6.50;80.72
24160;BME280;62385;41.594;23.808;2022-11-13T18:03:00;96607.97;;;6.45;80.84
24160;BME280;62385;41.594;23.808;2022-11-13T18:05:45;96615.03;;;6.33;80.90
24160;BME280;62385;41.594;23.808;2022-11-13T18:08:29;96616.22;;;6.29;81.05
24160;BME280;62385;41.594;23.808;2022-11-13T18:11:24;96614.28;;;6.31;80.94